Time;durP1;ratioP1;P1;durP2;ratioP2;P2;SDS_P1;SDS_P2;PMS_P1;PMS_P2;Temp;Humidity;BMP_temperature;BMP_pressure;BME280_temperature;BME280_humidity;BME280_pressure;Samples;Min_cycle;Max_cycle;Signal;HPM_P1;HPM_P2
2024/01/11 00:00:29;;;;;;;24.83;10.17;;;-2.10;65.10;;;;;;5024343;28;20022;-90
2024/01/11 00:02:54;;;;;;;22.87;10.40;;;-1.90;65.40;;;;;;5006215;28;20364;-89
2024/01/11 00:05:21;;;;;;;23.70;10.40;;;-2.00;65.20;;;;;;5006636;28;20498;-89
2024/01/11 00:07:47;;;;;;;30.43;11.63;;;-2.10;65.70;;;;;;5022806;28;20117;-89
2024/01/11 00:10:13;;;;;;;23.67;10.73;;;-2.10;66.00;;;;;;5008801;28;20291;-87
2024/01/11 00:12:38;;;;;;;26.23;11.63;;;-2.10;65.80;;;;;;5008893;28;20273;-89
2024/01/11 00:15:05;;;;;;;25.17;11.13;;;-2.10;66.20;;;;;;5009666;28;20018;-90
2024/01/11 00:17:31;;;;;;;26.50;12.07;;;-2.20;66.20;;;;;;5009352;28;20014;-89
2024/01/11 00:19:56;;;;;;;27.20;12.33;;;-2.00;67.80;;;;;;5025714;28;20273;-89
2024/01/11 00:22:22;;;;;;;28.70;12.60;;;-2.20;67.20;;;;;;5009113;28;20026;-88
2024/01/11 00:24:48;;;;;;;25.07;11.20;;;-2.20;66.80;;;;;;5008062;28;20026;-89
2024/01/11 00:27:13;;;;;;;27.00;11.03;;;-2.30;65.90;;;;;;5008795;28;20025;-89
2024/01/11 00:29:39;;;;;;;21.33;9.67;;;-2.30;66.00;;;;;;5008905;28;20053;-88
2024/01/11 00:32:05;;;;;;;20.87;10.00;;;-2.30;66.20;;;;;;5028379;28;20045;-88
2024/01/11 00:34:31;;;;;;;25.40;10.90;;;-2.30;66.30;;;;;;4994176;28;20026;-89
2024/01/11 00:36:56;;;;;;;20.13;8.90;;;-2.40;66.20;;;;;;5022164;28;20301;-88
2024/01/11 00:39:22;;;;;;;25.40;9.23;;;-2.40;66.40;;;;;;5005871;28;20018;-89
2024/01/11 00:41:47;;;;;;;20.73;9.03;;;-2.40;67.00;;;;;;5023413;28;20097;-88
2024/01/11 00:44:13;;;;;;;21.37;9.20;;;-2.40;66.70;;;;;;5006042;28;20377;-89
2024/01/11 00:46:41;;;;;;;24.87;10.23;;;-2.40;66.60;;;;;;5005845;28;20026;-89
2024/01/11 00:49:08;;;;;;;25.00;9.70;;;-2.40;67.50;;;;;;5005543;28;20040;-88
2024/01/11 00:51:34;;;;;;;23.70;10.90;;;-2.40;67.60;;;;;;5004792;28;20284;-87
2024/01/11 00:53:59;;;;;;;25.93;10.77;;;-2.30;68.30;;;;;;5005186;28;20276;-87
2024/01/11 00:56:26;;;;;;;22.03;10.40;;;-2.50;68.10;;;;;;5005663;28;20036;-88
2024/01/11 00:58:52;;;;;;;31.03;11.63;;;-2.40;68.10;;;;;;5022038;28;20034;-91
2024/01/11 01:01:18;;;;;;;25.83;10.07;;;-2.50;67.70;;;;;;5005763;28;20348;-88
2024/01/11 01:03:43;;;;;;;20.53;8.83;;;-2.60;67.60;;;;;;5022630;28;20288;-89
2024/01/11 01:06:09;;;;;;;22.23;9.33;;;-2.60;67.90;;;;;;5005543;28;20026;-87
2024/01/11 01:08:35;;;;;;;20.50;9.40;;;-2.60;67.90;;;;;;5005197;28;20042;-87
2024/01/11 01:11:01;;;;;;;26.40;9.90;;;-2.60;68.20;;;;;;5005533;28;20017;-88
2024/01/11 01:13:26;;;;;;;23.70;9.80;;;-2.60;68.60;;;;;;4989033;28;20022;-88
2024/01/11 01:15:52;;;;;;;24.30;8.60;;;-2.70;68.00;;;;;;5005192;28;20060;-88
2024/01/11 01:18:18;;;;;;;25.33;9.93;;;-2.70;68.20;;;;;;5005702;28;20064;-88
2024/01/11 01:20:43;;;;;;;21.37;8.17;;;-2.70;68.60;;;;;;5020774;28;20097;-89
2024/01/11 01:23:09;;;;;;;22.83;9.03;;;-2.70;68.80;;;;;;5005489;28;20025;-88
2024/01/11 01:25:35;;;;;;;21.90;10.60;;;-2.80;69.10;;;;;;5005204;28;20018;-89
2024/01/11 01:28:00;;;;;;;19.83;8.97;;;-2.80;68.70;;;;;;5022717;28;20033;-88
2024/01/11 01:30:27;;;;;;;24.77;9.50;;;-2.80;68.30;;;;;;5005642;28;20388;-88
2024/01/11 01:32:53;;;;;;;20.73;8.67;;;-2.90;68.70;;;;;;5004293;28;20025;-88
2024/01/11 01:35:19;;;;;;;23.73;10.67;;;-2.80;69.00;;;;;;5005122;28;20280;-90
2024/01/11 01:37:45;;;;;;;24.70;9.47;;;-2.90;69.10;;;;;;5004764;28;20458;-91
2024/01/11 01:40:12;;;;;;;21.70;8.83;;;-2.90;68.90;;;;;;5021981;28;20026;-89
2024/01/11 01:42:48;;;;;;;24.03;9.90;;;-2.90;68.90;;;;;;5004897;28;20029;-91
2024/01/11 01:45:15;;;;;;;21.40;8.90;;;-3.00;68.90;;;;;;5004942;28;20289;-89
2024/01/11 01:47:42;;;;;;;19.13;8.27;;;-3.00;69.30;;;;;;5005194;28;20795;-89
2024/01/11 01:50:10;;;;;;;20.33;8.80;;;-3.00;69.40;;;;;;5004478;28;20363;-90
2024/01/11 01:52:37;;;;;;;21.07;9.07;;;-3.00;70.00;;;;;;5005005;28;20284;-89
2024/01/11 01:55:05;;;;;;;22.60;10.17;;;-3.00;69.80;;;;;;5022153;28;20273;-89
2024/01/11 01:57:34;;;;;;;20.40;8.90;;;-3.10;70.60;;;;;;5004676;28;20272;-88
2024/01/11 02:00:01;;;;;;;20.87;9.30;;;-3.00;70.80;;;;;;5004417;28;20368;-89
2024/01/11 02:02:29;;;;;;;23.67;11.90;;;-3.10;70.40;;;;;;5004923;28;20632;-89
2024/01/11 02:04:55;;;;;;;24.63;9.03;;;-3.10;71.60;;;;;;5008762;28;20276;-88
2024/01/11 02:07:20;;;;;;;23.87;9.43;;;-3.20;70.70;;;;;;5008506;28;20299;-89
2024/01/11 02:09:47;;;;;;;22.13;8.57;;;-3.10;70.70;;;;;;5008971;28;20285;-89
2024/01/11 02:12:14;;;;;;;24.63;10.43;;;-3.20;70.50;;;;;;5009148;28;20029;-89
2024/01/11 02:14:40;;;;;;;19.00;9.27;;;-3.20;71.00;;;;;;5025389;28;20281;-90
2024/01/11 02:17:06;;;;;;;22.10;9.90;;;-3.20;71.20;;;;;;5008131;28;20676;-87
2024/01/11 02:19:33;;;;;;;17.47;8.47;;;-3.20;71.60;;;;;;5007795;28;20025;-87
2024/01/11 02:22:08;;;;;;;24.53;10.60;;;-3.30;71.30;;;;;;5008090;28;20049;-87
2024/01/11 02:24:33;;;;;;;;;;;-3.30;71.70;;;;;;5024418;28;20387;-87
2024/01/11 02:27:04;;;;;;;23.33;10.00;;;-3.30;72.40;;;;;;5008370;28;19913;-87
2024/01/11 02:29:30;;;;;;;23.27;9.53;;;-3.40;72.60;;;;;;5024970;28;20049;-89
2024/01/11 02:31:57;;;;;;;31.87;11.03;;;-3.40;72.70;;;;;;5007759;28;20276;-89
2024/01/11 02:34:24;;;;;;;27.07;10.03;;;-3.40;72.90;;;;;;5007729;28;20280;-88
2024/01/11 02:36:50;;;;;;;24.30;10.53;;;-3.50;73.10;;;;;;5007888;28;20335;-88
2024/01/11 02:39:18;;;;;;;22.40;10.10;;;-3.50;73.20;;;;;;5025012;28;20284;-89
2024/01/11 02:41:45;;;;;;;22.00;9.37;;;-3.50;73.00;;;;;;5007413;28;20033;-88
2024/01/11 02:44:11;;;;;;;24.60;10.47;;;-3.50;72.80;;;;;;5008087;28;20364;-88
2024/01/11 02:46:36;;;;;;;19.83;9.07;;;-3.50;72.80;;;;;;5007976;28;20311;-90
2024/01/11 02:49:02;;;;;;;21.73;9.93;;;-3.50;73.20;;;;;;5007965;28;20355;-88
2024/01/11 02:51:28;;;;;;;19.57;8.10;;;-3.60;72.70;;;;;;5007816;28;20038;-90
2024/01/11 02:53:54;;;;;;;18.50;8.13;;;-3.60;72.10;;;;;;5008170;28;20064;-89
2024/01/11 02:56:19;;;;;;;26.03;8.30;;;-3.60;71.90;;;;;;5008243;28;20383;-91
2024/01/11 02:58:45;;;;;;;19.20;7.87;;;-3.70;71.90;;;;;;5025478;28;20076;-89
2024/01/11 03:01:11;;;;;;;19.83;8.33;;;-3.70;71.80;;;;;;5008466;28;20312;-89
2024/01/11 03:03:36;;;;;;;18.03;8.03;;;-3.70;71.70;;;;;;5007357;28;20460;-88
2024/01/11 03:06:03;;;;;;;19.63;8.30;;;-3.70;71.80;;;;;;5008015;28;20026;-88
2024/01/11 03:08:28;;;;;;;22.63;8.20;;;-3.70;71.70;;;;;;5007639;28;20025;-88
2024/01/11 03:10:54;;;;;;;20.37;7.20;;;-3.80;71.60;;;;;;5007831;28;20281;-90
2024/01/11 03:13:20;;;;;;;20.10;7.57;;;-3.80;71.60;;;;;;5008937;28;20022;-90
2024/01/11 03:15:46;;;;;;;18.53;7.53;;;-3.80;71.60;;;;;;5007938;28;20504;-87
2024/01/11 03:18:11;;;;;;;15.83;6.47;;;-3.90;71.60;;;;;;5008992;28;20045;-87
2024/01/11 03:20:37;;;;;;;15.53;7.30;;;-3.90;71.70;;;;;;5011781;28;20036;-88
2024/01/11 03:23:03;;;;;;;18.37;6.87;;;-3.90;71.80;;;;;;5009433;28;20026;-87
2024/01/11 03:25:30;;;;;;;16.20;6.67;;;-3.90;72.30;;;;;;5006695;28;20054;-86
2024/01/11 03:27:55;;;;;;;20.00;8.20;;;-3.90;72.80;;;;;;5007217;28;20034;-87
2024/01/11 03:30:21;;;;;;;19.73;8.77;;;-3.90;73.20;;;;;;5006495;28;20297;-87
2024/01/11 03:32:47;;;;;;;21.23;9.93;;;-3.90;73.00;;;;;;5006485;28;20029;-87
2024/01/11 03:35:13;;;;;;;19.47;8.17;;;-3.90;73.40;;;;;;5007047;28;20060;-87
2024/01/11 03:37:38;;;;;;;24.93;9.70;;;-3.90;73.40;;;;;;5006559;28;20014;-87
2024/01/11 03:40:05;;;;;;;25.07;9.77;;;-3.90;73.50;;;;;;5010564;28;20022;-88
2024/01/11 03:42:31;;;;;;;20.30;8.70;;;-3.90;73.00;;;;;;5010765;28;20026;-87
2024/01/11 03:44:57;;;;;;;19.47;8.43;;;-3.90;72.70;;;;;;5010694;28;20269;-87
2024/01/11 03:47:22;;;;;;;20.43;8.40;;;-3.90;72.80;;;;;;5010270;28;20025;-88
2024/01/11 03:49:48;;;;;;;22.93;8.13;;;-4.00;73.60;;;;;;5009652;28;20045;-87
2024/01/11 03:52:14;;;;;;;20.70;8.50;;;-3.90;73.00;;;;;;5008387;28;20427;-88
2024/01/11 03:54:39;;;;;;;22.60;8.57;;;-4.00;72.80;;;;;;5006485;28;20109;-87
2024/01/11 03:57:06;;;;;;;22.47;8.47;;;-4.00;72.80;;;;;;5006303;28;20034;-87
2024/01/11 03:59:32;;;;;;;18.17;7.70;;;-4.00;72.80;;;;;;5006113;28;20056;-88
2024/01/11 04:01:57;;;;;;;16.53;6.63;;;-4.00;72.70;;;;;;5006495;28;20313;-87
2024/01/11 04:04:23;;;;;;;19.03;7.63;;;-4.00;72.70;;;;;;5022066;28;20022;-85
2024/01/11 04:06:49;;;;;;;17.97;7.40;;;-4.10;72.70;;;;;;5006219;28;20081;-87
2024/01/11 04:09:15;;;;;;;23.83;9.43;;;-4.10;72.90;;;;;;5006435;28;20014;-87
2024/01/11 04:11:41;;;;;;;19.43;7.30;;;-4.10;73.50;;;;;;5005114;28;20292;-86
2024/01/11 04:14:06;;;;;;;20.10;7.77;;;-4.10;73.30;;;;;;5006128;28;20030;-87
2024/01/11 04:16:32;;;;;;;23.40;9.30;;;-4.10;73.10;;;;;;5005552;28;20097;-86
2024/01/11 04:18:59;;;;;;;18.53;8.10;;;-4.10;73.10;;;;;;5006844;28;20022;-89
2024/01/11 04:21:28;;;;;;;20.57;8.60;;;-4.10;73.20;;;;;;5024639;28;20040;-87
2024/01/11 04:23:54;;;;;;;20.30;8.77;;;-4.10;73.40;;;;;;5006288;28;20273;-87
2024/01/11 04:26:20;;;;;;;17.33;7.80;;;-4.20;73.20;;;;;;5004280;28;20280;-87
2024/01/11 04:28:47;;;;;;;22.47;8.60;;;-4.20;73.80;;;;;;5005379;28;20026;-88
2024/01/11 04:31:14;;;;;;;24.10;10.23;;;-4.20;74.10;;;;;;5005702;28;20079;-88
2024/01/11 04:33:41;;;;;;;22.07;8.30;;;-4.20;74.00;;;;;;5005430;28;20281;-87
2024/01/11 04:36:08;;;;;;;23.30;9.63;;;-4.20;75.00;;;;;;5005802;28;20304;-87
2024/01/11 04:38:34;;;;;;;21.20;9.70;;;-4.20;75.50;;;;;;5023004;28;20849;-87
2024/01/11 04:41:00;;;;;;;23.27;9.90;;;-4.20;75.30;;;;;;5005171;28;20316;-86
2024/01/11 04:43:25;;;;;;;25.50;10.30;;;-4.20;75.60;;;;;;5005748;28;20022;-88
2024/01/11 04:45:52;;;;;;;25.40;11.00;;;-4.20;75.00;;;;;;5005157;28;20042;-89
2024/01/11 04:48:18;;;;;;;24.57;9.37;;;-4.20;74.80;;;;;;5023377;28;20026;-87
2024/01/11 04:50:44;;;;;;;23.27;9.53;;;-4.30;74.90;;;;;;5005162;28;20731;-88
2024/01/11 04:53:10;;;;;;;25.57;11.50;;;-4.30;75.80;;;;;;5005645;28;20645;-87
2024/01/11 04:55:37;;;;;;;29.40;11.47;;;-4.30;76.50;;;;;;5004491;28;20276;-88
2024/01/11 04:58:03;;;;;;;25.13;10.37;;;-4.30;76.60;;;;;;5005134;28;20093;-88
2024/01/11 05:00:28;;;;;;;25.87;10.47;;;-4.20;76.70;;;;;;5005266;28;20284;-88
2024/01/11 05:02:55;;;;;;;25.40;10.90;;;-4.30;76.30;;;;;;5023092;28;20105;-85
2024/01/11 05:05:21;;;;;;;29.83;10.67;;;-4.30;75.80;;;;;;4988873;28;20078;-87
2024/01/11 05:07:46;;;;;;;21.87;9.67;;;-4.30;76.10;;;;;;5022533;28;20284;-87
2024/01/11 05:10:12;;;;;;;22.00;9.53;;;-4.30;76.10;;;;;;5005169;28;20056;-86
2024/01/11 05:12:38;;;;;;;27.33;10.50;;;-4.30;76.70;;;;;;5022581;28;20018;-87
2024/01/11 05:15:06;;;;;;;26.47;11.33;;;-4.30;76.20;;;;;;5005198;28;20576;-87
2024/01/11 05:17:31;;;;;;;22.77;9.30;;;-4.30;75.80;;;;;;5005084;28;20097;-88
2024/01/11 05:19:57;;;;;;;20.80;9.67;;;-4.30;76.10;;;;;;5004909;28;20284;-86
2024/01/11 05:22:23;;;;;;;26.13;8.90;;;-4.30;75.60;;;;;;5004822;28;20042;-88
2024/01/11 05:24:48;;;;;;;22.73;9.40;;;-4.30;75.50;;;;;;5004321;28;20057;-87
2024/01/11 05:27:14;;;;;;;20.20;9.10;;;-4.30;75.50;;;;;;5005535;28;20124;-87
2024/01/11 05:29:40;;;;;;;24.43;9.50;;;-4.40;75.40;;;;;;5004182;28;20042;-87
2024/01/11 05:32:06;;;;;;;18.57;9.10;;;-4.30;75.90;;;;;;5004660;28;20037;-89
2024/01/11 05:34:31;;;;;;;23.30;9.60;;;-4.30;75.90;;;;;;5004649;28;20022;-88
2024/01/11 05:36:57;;;;;;;22.00;9.77;;;-4.30;75.70;;;;;;5004878;28;20018;-90
2024/01/11 05:39:23;;;;;;;21.30;8.97;;;-4.30;75.90;;;;;;5004634;28;20488;-88
2024/01/11 05:41:48;;;;;;;21.83;8.70;;;-4.40;75.70;;;;;;5022422;28;20040;-85
2024/01/11 05:44:14;;;;;;;22.50;9.10;;;-4.40;76.10;;;;;;4988539;28;20521;-84
2024/01/11 05:46:40;;;;;;;23.90;10.37;;;-4.40;75.50;;;;;;5004499;28;20030;-89
2024/01/11 05:49:06;;;;;;;18.80;8.70;;;-4.30;75.50;;;;;;5004768;28;20030;-84
2024/01/11 05:51:31;;;;;;;23.77;9.30;;;-4.40;75.50;;;;;;5003877;28;20030;-85
2024/01/11 05:53:57;;;;;;;24.73;9.80;;;-4.40;75.70;;;;;;5003557;28;20022;-83
2024/01/11 05:56:23;;;;;;;25.37;9.47;;;-4.40;75.90;;;;;;5003926;28;20026;-83
2024/01/11 05:58:48;;;;;;;21.03;9.30;;;-4.40;75.70;;;;;;5003698;28;20026;-84
2024/01/11 06:01:14;;;;;;;21.30;8.87;;;-4.50;75.60;;;;;;5004209;28;20387;-83
2024/01/11 06:03:40;;;;;;;19.57;7.97;;;-4.50;75.60;;;;;;5003940;28;20018;-85
2024/01/11 06:06:06;;;;;;;22.27;9.00;;;-4.50;75.70;;;;;;5004677;28;20335;-84
2024/01/11 06:08:32;;;;;;;23.70;9.17;;;-4.50;76.40;;;;;;5005604;28;20485;-79
2024/01/11 06:10:58;;;;;;;17.60;7.87;;;-4.50;75.80;;;;;;5022427;28;20281;-80
2024/01/11 06:13:24;;;;;;;23.77;9.70;;;-4.50;75.90;;;;;;5003869;28;20030;-84
2024/01/11 06:15:50;;;;;;;22.27;8.90;;;-4.60;76.00;;;;;;5004148;28;20320;-83
2024/01/11 06:18:16;;;;;;;21.90;8.33;;;-4.60;76.10;;;;;;5024690;28;20110;-82
2024/01/11 06:20:42;;;;;;;22.30;8.70;;;-4.60;76.10;;;;;;5008172;28;20060;-83
2024/01/11 06:23:07;;;;;;;20.97;8.17;;;-4.60;76.20;;;;;;5032262;28;20327;-84
2024/01/11 06:25:33;;;;;;;25.03;9.73;;;-4.60;76.20;;;;;;5018647;28;20339;-84
2024/01/11 06:27:59;;;;;;;23.33;9.47;;;-4.50;76.30;;;;;;5023647;28;20089;-84
2024/01/11 06:30:25;;;;;;;28.40;12.50;;;-4.50;76.90;;;;;;5023102;28;20073;-83
2024/01/11 06:32:51;;;;;;;27.93;12.43;;;-4.50;78.40;;;;;;5028932;28;20021;-83
2024/01/11 06:35:16;;;;;;;28.07;13.20;;;-4.50;78.70;;;;;;5031962;28;20014;-84
2024/01/11 06:37:43;;;;;;;30.10;12.33;;;-4.50;78.80;;;;;;5030609;28;20021;-83
2024/01/11 06:40:09;;;;;;;28.07;11.90;;;-4.40;78.20;;;;;;5049888;28;20089;-84
2024/01/11 06:42:34;;;;;;;30.33;12.13;;;-4.50;77.80;;;;;;5032480;28;20302;-83
2024/01/11 06:45:01;;;;;;;28.60;12.33;;;-4.40;77.70;;;;;;5033247;28;20268;-84
2024/01/11 06:47:26;;;;;;;29.23;12.60;;;-4.50;77.40;;;;;;5035867;28;20041;-84
2024/01/11 06:49:53;;;;;;;24.93;10.60;;;-4.50;77.40;;;;;;5063200;28;20285;-84
2024/01/11 06:52:19;;;;;;;25.67;10.77;;;-4.50;77.20;;;;;;5046467;28;20017;-84
2024/01/11 06:54:45;;;;;;;26.00;11.33;;;-4.50;77.30;;;;;;5064464;28;20286;-84
2024/01/11 06:57:11;;;;;;;26.57;10.57;;;-4.50;77.30;;;;;;5047262;28;20299;-84
2024/01/11 06:59:37;;;;;;;25.60;11.07;;;-4.50;77.20;;;;;;5046007;28;20028;-85
2024/01/11 07:02:03;;;;;;;27.47;11.27;;;-4.50;77.10;;;;;;5065200;28;20036;-84
2024/01/11 07:04:29;;;;;;;23.87;10.00;;;-4.50;77.20;;;;;;5047371;28;20620;-84
2024/01/11 07:06:55;;;;;;;30.33;10.30;;;-4.50;77.20;;;;;;5045215;28;20307;-84
2024/01/11 07:09:20;;;;;;;27.93;12.37;;;-4.50;77.80;;;;;;5044917;28;20025;-84
2024/01/11 07:11:46;;;;;;;27.17;12.70;;;-4.50;78.60;;;;;;5026511;28;20025;-84
2024/01/11 07:14:12;;;;;;;29.50;12.80;;;-4.50;78.40;;;;;;5044943;28;20047;-84
2024/01/11 07:16:37;;;;;;;29.33;13.93;;;-4.50;78.70;;;;;;5026336;28;20025;-84
2024/01/11 07:19:03;;;;;;;31.60;13.13;;;-4.40;78.70;;;;;;5026914;28;20025;-84
2024/01/11 07:21:29;;;;;;;32.57;13.23;;;-4.40;78.50;;;;;;5043726;28;20030;-84
2024/01/11 07:23:58;;;;;;;34.40;14.80;;;-4.50;78.60;;;;;;5044538;28;20063;-83
2024/01/11 07:26:25;;;;;;;26.80;12.57;;;-4.40;78.40;;;;;;5026034;28;20355;-83
2024/01/11 07:28:51;;;;;;;29.40;13.43;;;-4.40;78.30;;;;;;5025382;28;20292;-84
2024/01/11 07:31:16;;;;;;;26.47;12.23;;;-4.40;78.20;;;;;;5025882;28;20311;-83
2024/01/11 07:33:43;;;;;;;28.90;12.40;;;-4.50;77.90;;;;;;5025119;28;20031;-83
2024/01/11 07:36:09;;;;;;;26.97;12.00;;;-4.50;77.80;;;;;;5026308;28;20045;-82
2024/01/11 07:38:35;;;;;;;24.43;11.00;;;-4.50;77.80;;;;;;5025639;28;20288;-83
2024/01/11 07:41:01;;;;;;;27.73;11.33;;;-4.50;77.80;;;;;;5026577;28;20029;-83
2024/01/11 07:43:28;;;;;;;25.50;11.27;;;-4.60;77.80;;;;;;5025779;28;20089;-84
2024/01/11 07:45:56;;;;;;;24.93;10.60;;;-4.50;77.90;;;;;;5025823;28;20795;-83
2024/01/11 07:48:22;;;;;;;26.13;11.30;;;-4.60;78.00;;;;;;5026683;28;20284;-83
2024/01/11 07:50:48;;;;;;;27.00;11.63;;;-4.50;78.10;;;;;;5026356;28;20284;-83
2024/01/11 07:53:14;;;;;;;29.47;12.10;;;-4.60;78.00;;;;;;5026372;28;20295;-84
2024/01/11 07:55:40;;;;;;;24.13;11.50;;;-4.50;78.20;;;;;;5025089;28;20110;-84
2024/01/11 07:58:07;;;;;;;25.30;11.37;;;-4.60;78.30;;;;;;5025984;28;20295;-84
2024/01/11 08:00:33;;;;;;;29.77;12.03;;;-4.60;78.20;;;;;;5024734;28;20276;-84
2024/01/11 08:02:59;;;;;;;27.80;11.17;;;-4.60;78.10;;;;;;5024916;28;20945;-82
2024/01/11 08:05:25;;;;;;;24.23;10.33;;;-4.60;78.10;;;;;;5025556;28;20279;-84
2024/01/11 08:07:51;;;;;;;28.60;12.40;;;-4.60;78.30;;;;;;5024932;28;20026;-84
2024/01/11 08:10:17;;;;;;;25.63;11.20;;;-4.60;78.30;;;;;;5026123;28;20021;-84
2024/01/11 08:12:42;;;;;;;25.23;10.37;;;-4.60;78.30;;;;;;5024876;28;20310;-84
2024/01/11 08:15:12;;;;;;;25.90;11.17;;;-4.60;78.30;;;;;;5025526;28;20024;-84
2024/01/11 08:17:39;;;;;;;27.10;11.33;;;-4.50;78.60;;;;;;5024673;28;20018;-83
2024/01/11 08:20:08;;;;;;;30.23;12.63;;;-4.50;78.70;;;;;;5025132;28;20299;-83
2024/01/11 08:22:35;;;;;;;30.20;13.60;;;-4.50;79.20;;;;;;5026706;28;20272;-83
2024/01/11 08:25:04;;;;;;;29.77;12.80;;;-4.40;78.90;;;;;;5042595;28;20328;-84
2024/01/11 08:27:31;;;;;;;31.20;13.17;;;-4.40;78.60;;;;;;5025793;28;20306;-84
2024/01/11 08:29:57;;;;;;;26.03;12.13;;;-4.40;78.60;;;;;;5024257;28;20327;-83
2024/01/11 08:32:23;;;;;;;25.77;11.97;;;-4.40;78.70;;;;;;5024775;28;20338;-83
2024/01/11 08:34:48;;;;;;;27.53;12.40;;;-4.40;78.70;;;;;;5024896;28;20276;-84
2024/01/11 08:37:14;;;;;;;25.83;11.10;;;-4.40;78.80;;;;;;5024698;28;20087;-84
2024/01/11 08:39:40;;;;;;;28.53;13.13;;;-4.30;78.90;;;;;;5025317;28;20014;-83
2024/01/11 08:42:06;;;;;;;25.53;10.73;;;-4.30;79.00;;;;;;5024287;28;20108;-84
2024/01/11 08:44:32;;;;;;;28.80;12.20;;;-4.30;78.90;;;;;;5025453;28;20287;-84
2024/01/11 08:46:59;;;;;;;29.27;12.07;;;-4.20;79.00;;;;;;5023786;28;20450;-84
2024/01/11 08:49:25;;;;;;;29.03;13.07;;;-4.20;79.10;;;;;;5025211;28;20288;-84
2024/01/11 08:51:51;;;;;;;30.60;14.13;;;-4.10;79.20;;;;;;5042245;28;20280;-84
2024/01/11 08:54:16;;;;;;;33.73;15.70;;;-4.10;79.40;;;;;;5024599;28;20380;-83
2024/01/11 08:56:42;;;;;;;35.23;17.17;;;-4.10;80.20;;;;;;5025413;28;20052;-84
2024/01/11 08:59:08;;;;;;;36.70;16.60;;;-4.00;80.10;;;;;;5027191;28;20037;-84
2024/01/11 09:01:35;;;;;;;33.93;15.37;;;-3.90;80.00;;;;;;5025764;28;20299;-83
2024/01/11 09:04:02;;;;;;;35.60;16.17;;;-3.90;80.30;;;;;;5042342;28;20151;-84
2024/01/11 09:06:27;;;;;;;34.23;15.70;;;-3.80;80.20;;;;;;5025093;28;20304;-84
2024/01/11 09:08:53;;;;;;;38.70;16.70;;;-3.80;80.10;;;;;;5023938;28;20347;-84
2024/01/11 09:11:19;;;;;;;36.90;16.57;;;-3.70;80.20;;;;;;5024287;28;20060;-84
2024/01/11 09:13:45;;;;;;;38.63;17.73;;;-3.60;80.40;;;;;;5041956;28;20031;-84
2024/01/11 09:16:15;;;;;;;42.03;18.60;;;-3.60;80.50;;;;;;5023568;28;20022;-84
2024/01/11 09:18:42;;;;;;;40.57;17.93;;;-3.50;80.50;;;;;;5024767;28;20089;-84
2024/01/11 09:21:08;;;;;;;42.60;18.40;;;-3.40;80.60;;;;;;5041440;28;20280;-84
2024/01/11 09:23:34;;;;;;;36.67;17.07;;;-3.40;80.30;;;;;;5024741;28;20340;-84
2024/01/11 09:26:00;;;;;;;37.80;16.90;;;-3.40;80.10;;;;;;5023731;28;20037;-84
2024/01/11 09:28:25;;;;;;;38.77;17.43;;;-3.30;80.00;;;;;;5042073;28;20294;-84
2024/01/11 09:30:51;;;;;;;41.33;17.07;;;-3.20;80.00;;;;;;5023579;28;20064;-84
2024/01/11 09:33:17;;;;;;;35.37;17.07;;;-3.10;80.20;;;;;;5023216;28;20017;-85
2024/01/11 09:35:42;;;;;;;31.27;15.83;;;-3.00;80.30;;;;;;5024632;28;20018;-84
2024/01/11 09:38:08;;;;;;;43.27;19.10;;;-2.90;80.40;;;;;;5023511;28;20017;-84
2024/01/11 09:40:34;;;;;;;48.83;22.50;;;-2.60;80.80;;;;;;5024617;28;20021;-84
2024/01/11 09:43:03;;;;;;;46.17;21.63;;;-2.60;80.70;;;;;;5023204;28;20027;-84
2024/01/11 09:45:29;;;;;;;53.37;23.10;;;-2.30;80.50;;;;;;5023597;28;20010;-84
2024/01/11 09:47:55;;;;;;;51.93;22.87;;;-2.00;80.70;;;;;;5023721;28;20276;-83
2024/01/11 09:50:22;;;;;;;38.53;19.03;;;-1.70;80.80;;;;;;5023403;28;20028;-84
2024/01/11 09:52:49;;;;;;;38.70;19.63;;;-1.30;81.30;;;;;;5024290;28;20029;-84
2024/01/11 09:55:18;;;;;;;35.00;18.27;;;-0.80;81.80;;;;;;5041036;28;20056;-84
2024/01/11 09:57:59;;;;;;;35.47;17.27;;;-0.20;82.60;;;;;;5024299;28;20040;-85
2024/01/11 10:00:25;;;;;;;30.23;16.53;;;0.60;82.80;;;;;;5023233;28;20022;-84
2024/01/11 10:02:52;;;;;;;30.90;15.80;;;1.30;82.50;;;;;;5023605;28;20022;-85
2024/01/11 10:05:18;;;;;;;31.67;17.87;;;2.10;82.70;;;;;;5017128;28;20022;-84
2024/01/11 10:07:45;;;;;;;27.20;15.13;;;2.80;82.90;;;;;;5003054;28;20089;-85
2024/01/11 10:10:15;;;;;;;26.10;15.50;;;3.50;83.80;;;;;;5004201;28;20022;-83
2024/01/11 10:12:40;;;;;;;27.00;15.90;;;4.20;84.20;;;;;;5021025;28;20029;-85
2024/01/11 10:15:10;;;;;;;28.03;15.53;;;4.90;84.00;;;;;;5004160;28;20049;-85
2024/01/11 10:17:45;;;;;;;22.85;14.25;;;5.50;83.70;;;;;;5003948;28;20026;-86
2024/01/11 10:20:16;;;;;;;24.60;14.35;;;6.20;83.10;;;;;;5003988;28;20176;-84
2024/01/11 10:22:42;;;;;;;21.92;13.68;;;6.70;82.30;;;;;;5004227;28;20045;-85
2024/01/11 10:25:16;;;;;;;23.75;14.70;;;7.20;80.00;;;;;;5005831;28;20026;-85
2024/01/11 10:27:44;;;;;;;21.27;13.50;;;7.60;77.80;;;;;;5008092;28;20065;-85
2024/01/11 10:30:13;;;;;;;21.33;14.10;;;7.90;76.00;;;;;;5007246;28;20053;-85
2024/01/11 10:32:39;;;;;;;25.20;17.05;;;8.00;74.20;;;;;;5007637;28;20030;-85
2024/01/11 10:35:05;;;;;;;25.85;17.70;;;8.00;66.60;;;;;;5007516;28;20025;-85
2024/01/11 10:37:35;;;;;;;26.08;17.35;;;7.70;64.50;;;;;;5024509;28;20026;-85
2024/01/11 10:40:09;;;;;;;24.27;15.95;;;7.40;67.10;;;;;;5025868;28;20081;-85
2024/01/11 10:42:37;;;;;;;25.10;15.00;;;7.20;66.40;;;;;;5006796;28;20036;-85
2024/01/11 10:45:06;;;;;;;24.43;15.80;;;7.00;66.00;;;;;;5008165;28;20093;-85
2024/01/11 10:47:34;;;;;;;23.77;15.20;;;6.90;65.90;;;;;;5007475;28;20034;-84
2024/01/11 10:50:02;;;;;;;24.57;14.87;;;6.80;65.60;;;;;;5007124;28;20053;-85
2024/01/11 10:52:34;;;;;;;26.37;15.60;;;6.60;64.90;;;;;;5007857;28;20040;-85
2024/01/11 10:55:01;;;;;;;25.33;15.23;;;6.50;64.10;;;;;;5007069;28;20542;-85
2024/01/11 10:57:28;;;;;;;22.73;13.00;;;6.50;63.60;;;;;;5009859;28;20396;-85
2024/01/11 10:59:55;;;;;;;21.07;13.47;;;6.40;64.10;;;;;;5006761;28;20037;-84
2024/01/11 11:02:22;;;;;;;21.30;12.93;;;6.40;64.10;;;;;;5007636;28;20045;-85
2024/01/11 11:04:51;;;;;;;19.60;12.40;;;6.40;64.50;;;;;;5006986;28;20184;-84
2024/01/11 11:07:18;;;;;;;19.47;11.13;;;6.60;64.80;;;;;;5006779;28;20073;-85
2024/01/11 11:09:45;;;;;;;16.80;9.53;;;6.80;65.20;;;;;;5007569;28;20030;-85
2024/01/11 11:12:11;;;;;;;18.57;10.03;;;7.10;65.00;;;;;;5005884;28;20029;-85
2024/01/11 11:14:38;;;;;;;17.90;9.87;;;7.00;63.50;;;;;;5007467;28;20350;-85
2024/01/11 11:17:05;;;;;;;17.97;9.17;;;6.70;63.00;;;;;;5005924;28;20026;-85
2024/01/11 11:19:31;;;;;;;21.60;10.20;;;6.20;63.30;;;;;;5007608;28;20029;-84
2024/01/11 11:21:56;;;;;;;17.87;9.20;;;5.70;64.30;;;;;;5006493;28;20030;-84
2024/01/11 11:24:22;;;;;;;18.77;8.57;;;5.20;64.80;;;;;;5006242;28;20032;-84
2024/01/11 11:26:48;;;;;;;19.37;10.23;;;4.80;65.70;;;;;;5006355;28;20072;-85
2024/01/11 11:29:15;;;;;;;21.23;9.93;;;4.50;66.40;;;;;;5005556;28;20034;-85
2024/01/11 11:31:43;;;;;;;21.97;10.27;;;4.20;66.70;;;;;;5007035;28;20018;-85
2024/01/11 11:34:12;;;;;;;22.70;9.53;;;3.90;67.00;;;;;;5005906;28;20022;-84
2024/01/11 11:36:41;;;;;;;17.30;7.90;;;3.70;66.90;;;;;;5006738;28;20094;-85
2024/01/11 11:39:11;;;;;;;20.47;9.20;;;3.40;67.40;;;;;;5006162;28;20101;-84
2024/01/11 11:41:38;;;;;;;23.27;9.60;;;3.30;67.70;;;;;;5006092;28;20018;-85
2024/01/11 11:44:05;;;;;;;21.37;8.70;;;3.20;68.10;;;;;;5024397;28;20029;-84
2024/01/11 11:46:34;;;;;;;19.07;8.47;;;3.10;68.50;;;;;;5023386;28;20038;-84
2024/01/11 11:49:00;;;;;;;22.20;9.30;;;3.00;69.00;;;;;;5024810;28;20100;-84
2024/01/11 11:51:27;;;;;;;20.00;8.37;;;3.00;69.30;;;;;;5006245;28;20049;-84
2024/01/11 11:53:53;;;;;;;22.97;9.37;;;3.00;69.50;;;;;;5009599;28;20026;-84
2024/01/11 11:56:23;;;;;;;22.73;9.50;;;2.90;69.60;;;;;;5008195;28;20090;-83
2024/01/11 11:58:52;;;;;;;26.23;10.83;;;2.90;70.10;;;;;;5005668;28;20057;-84
2024/01/11 12:01:17;;;;;;;26.80;10.73;;;2.80;70.80;;;;;;5006733;28;20026;-84
2024/01/11 12:03:48;;;;;;;21.87;9.47;;;2.80;70.80;;;;;;5005540;28;20086;-84
2024/01/11 12:06:16;;;;;;;22.60;9.53;;;2.70;71.10;;;;;;5007171;28;20064;-83
2024/01/11 12:08:43;;;;;;;19.70;8.57;;;2.70;71.10;;;;;;5005072;28;20033;-83
2024/01/11 12:11:09;;;;;;;25.20;9.97;;;2.60;71.30;;;;;;5006115;28;20038;-84
2024/01/11 12:13:35;;;;;;;21.57;10.13;;;2.60;71.70;;;;;;5006068;28;20022;-83
2024/01/11 12:16:01;;;;;;;17.77;7.90;;;2.60;71.90;;;;;;5005500;28;20026;-84
2024/01/11 12:18:27;;;;;;;18.87;8.53;;;2.60;72.30;;;;;;5006049;28;20037;-85
2024/01/11 12:20:53;;;;;;;23.57;8.67;;;2.60;72.20;;;;;;5004986;28;20021;-84
2024/01/11 12:23:19;;;;;;;23.33;9.90;;;2.60;72.50;;;;;;5008753;28;20535;-84
2024/01/11 12:25:45;;;;;;;20.30;8.77;;;2.60;73.20;;;;;;5004985;28;20030;-85
2024/01/11 12:28:11;;;;;;;22.80;9.93;;;2.50;73.40;;;;;;5005734;28;20026;-85